X  Fermer Données météorologiques d'aviation de Metar        LGTS Thessaloniki Macedonia International
Température
18°C Température
10°C Point de rosée
59% Humidité



Vent
14 MPH
22 KM/H
6 M/S
12 KTS



180°
S
Conditions actuelles

Partly Cloudy with Drizzle Partiellement nuageux , Bruine
Pression 1009 (hPa) - 29.79 (inHg)
Visibilité 6 (mile) - 10 (km)
Aéroport
Code de l'aéroport LGTS

Emplacement: Thessaloniki Macedonia International
Distance: 85 (mi)

Metar:
METAR LGTS 261250Z 18012KT 140V200 9999 -DZ FEW020 SCT035 18/10 Q1009 NOSIG

Temps: 26-02-2024 14:50 EET